Rankings de siempre
Mejores tiempos personales válidos de atleta a través de todos los eventos y temporadas. Cada atleta aparece una vez por división.
Busca por nombre y abre la página donde está clasificado este récord de división.
14,087 atletas clasificados
Los finishers de HYROX ELITE 15 se rastrean por separado — ver la clasificación Elite.
| Pos. | Pos. AG | Atleta | Nacionalidad | Categoría de edad | TiempoMejor tiempo | Diferencia |
|---|---|---|---|---|---|---|
| 9576 | #1943 | Salem GiampietroW 35-39 · AG #1943 | -- | W 35-39 | 1:37:53 | +41:30 |
| 9577 | #2359 | Gemma FinneganGBR · W 25-29 · AG #2359 | GBR | W 25-29 | 1:37:53 | +41:30 |
| 9578 | #2622 | Janine AdameitGER · W 30-34 · AG #2622 | GER | W 30-34 | 1:37:53 | +41:30 |
| 9579 | #2360 | Sage LyonsUSA · W 25-29 · AG #2360 | USA | W 25-29 | 1:37:53 | +41:30 |
| 9580 | #2623 | Stefanie SchferGER · W 30-34 · AG #2623 | GER | W 30-34 | 1:37:54 | +41:31 |
| 9581 | #1291 | Claire KempGBR · W 40-44 · AG #1291 | GBR | W 40-44 | 1:37:55 | +41:32 |
| 9582 | #1944 | Daniela AlbamonteITA · W 35-39 · AG #1944 | ITA | W 35-39 | 1:37:55 | +41:32 |
| 9583 | #1945 | Joelle ChewSIN · W 35-39 · AG #1945 | SIN | W 35-39 | 1:37:55 | +41:32 |
| 9584 | #661 | Karen HollingsworthGBR · W 45-49 · AG #661 | GBR | W 45-49 | 1:37:56 | +41:33 |
| 9585 | #2361 | Gabriëlla BliekNED · W 25-29 · AG #2361 | NED | W 25-29 | 1:37:56 | +41:33 |
| 9586 | #1066 | Alexandra MaierGER · W 16-24 · AG #1066 | GER | W 16-24 | 1:37:56 | +41:33 |
| 9587 | #660 | Julia SchwarzGER · W 45-49 · AG #660 | GER | W 45-49 | 1:37:56 | +41:33 |
| 9588 | #1292 | Susanne SolleGER · W 40-44 · AG #1292 | GER | W 40-44 | 1:37:56 | +41:33 |
| 9589 | #2624 | Sabrina KherchouchFRA · W 30-34 · AG #2624 | FRA | W 30-34 | 1:37:56 | +41:33 |
| 9590 | #1946 | Joffrey MorelleFRA · W 35-39 · AG #1946 | FRA | W 35-39 | 1:37:56 | +41:33 |
| 9591 | #2363 | Steph JaroszUSA · W 25-29 · AG #2363 | USA | W 25-29 | 1:37:57 | +41:34 |
| 9592 | #2625 | Mariana FriasMEX · W 30-34 · AG #2625 | MEX | W 30-34 | 1:37:57 | +41:34 |
| 9593 | #2626 | Karina Andrea Rodriguez JimenezMEX · W 30-34 · AG #2626 | MEX | W 30-34 | 1:37:57 | +41:34 |
| 9594 | #2364 | Katie FisherUSA · W 25-29 · AG #2364 | USA | W 25-29 | 1:37:57 | +41:34 |
| 9595 | #1293 | Gemma HoltGBR · W 40-44 · AG #1293 | GBR | W 40-44 | 1:37:57 | +41:34 |
| 9596 | #662 | Sabrina ZammitGBR · W 45-49 · AG #662 | GBR | W 45-49 | 1:37:57 | +41:34 |
| 9597 | #2362 | Alix RekersbrinkGER · W 25-29 · AG #2362 | GER | W 25-29 | 1:37:57 | +41:34 |
| 9598 | #1947 | Sabine LanzGER · W 35-39 · AG #1947 | GER | W 35-39 | 1:37:57 | +41:34 |
| 9599 | #280 | Louise EastwoodGBR · W 50-54 · AG #280 | GBR | W 50-54 | 1:37:57 | +41:34 |
| 9600 | #97 | Jennifer Dewald-HarrisonNZL · W 55-59 · AG #97 | NZL | W 55-59 | 1:37:58 | +41:35 |
Página 384 de 564